createdAt,value
2017-05-25T00:02:19.827Z,16.20
2017-05-25T00:04:48.176Z,16.30
2017-05-25T00:07:16.499Z,16.30
2017-05-25T00:09:44.852Z,16.20
2017-05-25T00:12:13.172Z,16.10
2017-05-25T00:14:41.512Z,16.30
2017-05-25T00:17:09.820Z,16.10
2017-05-25T00:19:38.124Z,16.30
2017-05-25T00:22:06.435Z,16.40
2017-05-25T00:24:34.739Z,16.40
2017-05-25T00:27:03.056Z,16.40
2017-05-25T00:29:31.377Z,16.50
2017-05-25T00:31:59.692Z,16.50
2017-05-25T00:34:28.007Z,16.40
2017-05-25T00:36:56.327Z,16.20
2017-05-25T00:39:24.640Z,16.10
2017-05-25T00:41:52.961Z,16.10
2017-05-25T00:44:21.289Z,15.70
2017-05-25T00:46:49.603Z,15.80
2017-05-25T00:49:17.963Z,15.80
2017-05-25T00:51:46.485Z,16.00
2017-05-25T00:54:14.792Z,16.10
2017-05-25T00:56:43.119Z,16.00
2017-05-25T00:59:11.441Z,15.80
2017-05-25T01:01:39.747Z,15.60
2017-05-25T01:04:08.063Z,15.60
2017-05-25T01:06:36.392Z,15.60
2017-05-25T01:09:04.695Z,15.70
2017-05-25T01:11:33.008Z,15.80
2017-05-25T01:14:01.332Z,15.90
2017-05-25T01:16:29.669Z,15.80
2017-05-25T01:18:58.060Z,15.70
2017-05-25T01:21:26.375Z,15.70
2017-05-25T01:23:54.714Z,15.50
2017-05-25T01:26:23.027Z,15.50
2017-05-25T01:28:51.557Z,15.40
2017-05-25T01:31:19.889Z,15.30
2017-05-25T01:33:48.195Z,15.50
2017-05-25T01:36:16.516Z,15.50
2017-05-25T01:38:44.823Z,15.60
2017-05-25T01:41:13.135Z,15.70
2017-05-25T01:43:42.018Z,16.00
2017-05-25T01:46:10.332Z,15.70
2017-05-25T01:48:38.645Z,15.60
2017-05-25T01:51:06.964Z,15.50
2017-05-25T01:53:35.277Z,15.70
2017-05-25T01:56:03.584Z,15.50
2017-05-25T01:58:31.907Z,15.70
2017-05-25T02:01:00.211Z,15.80
2017-05-25T02:03:28.532Z,16.00
2017-05-25T02:05:56.856Z,16.00
2017-05-25T02:08:25.164Z,16.00
2017-05-25T02:10:53.480Z,16.00
2017-05-25T02:13:21.808Z,15.80
2017-05-25T02:15:50.123Z,15.70
2017-05-25T02:18:18.439Z,15.70
2017-05-25T02:20:46.759Z,15.90
2017-05-25T02:23:15.071Z,16.00
2017-05-25T02:25:43.393Z,16.10
2017-05-25T02:28:11.708Z,16.20
2017-05-25T02:30:40.017Z,16.10
2017-05-25T02:33:08.365Z,15.80
2017-05-25T02:35:36.688Z,15.90
2017-05-25T02:38:05.020Z,15.70
2017-05-25T02:40:33.331Z,15.90
2017-05-25T02:43:01.648Z,16.00
2017-05-25T02:45:29.956Z,16.00
2017-05-25T02:47:58.267Z,16.10
2017-05-25T02:50:26.584Z,16.10
2017-05-25T02:52:54.888Z,16.00
2017-05-25T02:55:23.196Z,16.00
2017-05-25T02:57:51.520Z,16.00
2017-05-25T03:00:19.908Z,16.10
2017-05-25T03:02:48.232Z,15.90
2017-05-25T03:05:16.875Z,16.10
2017-05-25T03:07:45.187Z,16.20
2017-05-25T03:10:13.491Z,16.10
2017-05-25T03:12:41.804Z,16.10
2017-05-25T03:15:10.122Z,16.00
2017-05-25T03:17:38.428Z,16.00
2017-05-25T03:20:06.747Z,16.00
2017-05-25T03:22:35.056Z,15.90
2017-05-25T03:25:03.364Z,16.00
2017-05-25T03:27:31.690Z,16.10
2017-05-25T03:30:00.003Z,15.80
2017-05-25T03:32:28.326Z,15.70
2017-05-25T03:34:56.645Z,15.80
2017-05-25T03:37:24.953Z,15.80
2017-05-25T03:39:53.269Z,15.70
2017-05-25T03:42:21.593Z,15.70
2017-05-25T03:44:50.124Z,15.70
2017-05-25T03:47:18.423Z,15.70
2017-05-25T03:49:46.763Z,15.60
2017-05-25T03:52:15.080Z,15.60
2017-05-25T03:54:43.388Z,15.80
2017-05-25T03:57:11.714Z,15.90
2017-05-25T03:59:40.030Z,16.20
2017-05-25T04:02:08.379Z,16.10
2017-05-25T04:04:36.705Z,16.10
2017-05-25T04:07:05.016Z,16.20
2017-05-25T04:09:33.351Z,16.30
2017-05-25T04:12:01.671Z,16.00
2017-05-25T04:14:29.989Z,16.10
2017-05-25T04:16:58.300Z,16.00
2017-05-25T04:19:26.872Z,16.10
2017-05-25T04:21:55.180Z,16.10
2017-05-25T04:24:23.508Z,16.10
2017-05-25T04:26:51.992Z,16.30
2017-05-25T04:29:20.304Z,16.40
2017-05-25T04:31:48.613Z,16.40
2017-05-25T04:34:16.941Z,16.40
2017-05-25T04:36:45.260Z,16.30
2017-05-25T04:39:14.209Z,16.50
2017-05-25T04:41:42.545Z,16.30
2017-05-25T04:44:15.755Z,16.30
2017-05-25T04:46:45.449Z,16.40
2017-05-25T04:49:14.680Z,16.30
2017-05-25T04:51:43.010Z,16.30
2017-05-25T04:54:11.440Z,16.50
2017-05-25T04:56:39.750Z,16.50
2017-05-25T04:59:08.056Z,16.40
2017-05-25T05:01:36.373Z,16.10
2017-05-25T05:04:04.707Z,15.90
2017-05-25T05:06:33.015Z,15.80
2017-05-25T05:09:01.332Z,15.70
2017-05-25T05:11:29.757Z,15.80
2017-05-25T05:13:58.095Z,15.90
2017-05-25T05:16:26.424Z,15.80
2017-05-25T05:18:54.894Z,15.70
2017-05-25T05:21:23.332Z,15.80
2017-05-25T05:23:51.663Z,16.00
2017-05-25T05:26:19.971Z,16.10
2017-05-25T05:28:48.284Z,16.20
2017-05-25T05:31:16.597Z,16.40
2017-05-25T05:33:44.931Z,16.50
2017-05-25T05:36:13.236Z,16.70
2017-05-25T05:38:41.559Z,16.70
2017-05-25T05:41:09.871Z,16.60
2017-05-25T05:43:38.180Z,16.70
2017-05-25T05:46:06.491Z,16.70
2017-05-25T05:48:34.814Z,16.60
2017-05-25T05:51:03.119Z,16.40
2017-05-25T05:53:31.455Z,16.40
2017-05-25T05:55:59.763Z,16.30
2017-05-25T05:58:28.083Z,16.30
2017-05-25T06:00:56.395Z,16.40
2017-05-25T06:03:24.703Z,16.60
2017-05-25T06:05:53.015Z,16.70
2017-05-25T06:08:21.345Z,16.50
2017-05-25T06:10:49.659Z,16.40
2017-05-25T06:13:17.972Z,16.20
2017-05-25T06:15:46.290Z,16.10
2017-05-25T06:18:14.599Z,16.20
2017-05-25T06:20:42.910Z,16.50
2017-05-25T06:23:11.231Z,16.80
2017-05-25T06:25:39.544Z,17.10
2017-05-25T06:28:07.852Z,17.20
2017-05-25T06:30:36.171Z,17.20
2017-05-25T06:33:04.479Z,17.20
2017-05-25T06:35:32.817Z,17.40
2017-05-25T06:38:01.144Z,17.20
2017-05-25T06:40:29.476Z,17.30
2017-05-25T06:42:57.798Z,17.50
2017-05-25T06:45:26.127Z,17.70
2017-05-25T06:47:54.436Z,17.60
2017-05-25T06:50:22.755Z,17.60
2017-05-25T06:52:51.068Z,17.60
2017-05-25T06:55:19.405Z,17.70
2017-05-25T06:57:47.725Z,18.00
2017-05-25T07:00:16.043Z,18.30
2017-05-25T07:02:44.347Z,18.50
2017-05-25T07:05:12.667Z,18.50
2017-05-25T07:07:40.988Z,18.70
2017-05-25T07:10:09.305Z,19.00
2017-05-25T07:12:37.617Z,18.90
2017-05-25T07:15:05.932Z,19.00
2017-05-25T07:17:34.243Z,19.20
2017-05-25T07:20:02.552Z,19.40
2017-05-25T07:22:30.883Z,19.40
2017-05-25T07:24:59.193Z,19.50
2017-05-25T07:27:27.500Z,19.40
2017-05-25T07:29:55.827Z,19.60
2017-05-25T07:32:24.136Z,19.60
2017-05-25T07:34:52.439Z,19.40
2017-05-25T07:37:20.775Z,19.60
2017-05-25T07:39:49.080Z,19.70
2017-05-25T07:42:17.391Z,19.80
2017-05-25T07:44:45.716Z,20.10
2017-05-25T07:47:14.020Z,20.60
2017-05-25T07:49:42.336Z,20.60
2017-05-25T07:52:10.660Z,20.70
2017-05-25T07:54:38.980Z,20.80
2017-05-25T07:57:08.064Z,20.50
2017-05-25T07:59:36.485Z,20.80
2017-05-25T08:02:05.068Z,20.80
2017-05-25T08:04:33.530Z,21.20
2017-05-25T08:07:01.896Z,21.30
2017-05-25T08:09:30.209Z,21.70
2017-05-25T08:11:58.567Z,21.90
2017-05-25T08:14:26.879Z,21.70
2017-05-25T08:16:55.196Z,21.80
2017-05-25T08:19:23.506Z,21.60
2017-05-25T08:21:51.823Z,21.40
2017-05-25T08:24:20.143Z,21.20
2017-05-25T08:26:48.452Z,21.20
2017-05-25T08:29:16.767Z,21.30
2017-05-25T08:31:45.072Z,21.50
2017-05-25T08:34:13.384Z,21.70
2017-05-25T08:36:41.716Z,21.90
2017-05-25T08:39:10.025Z,21.90
2017-05-25T08:41:38.331Z,22.00
2017-05-25T08:44:06.651Z,22.00
2017-05-25T08:46:34.981Z,21.90
2017-05-25T08:49:03.293Z,21.90
2017-05-25T08:51:31.613Z,22.20
2017-05-25T08:53:59.944Z,22.10
2017-05-25T08:56:28.262Z,21.80
2017-05-25T08:58:56.575Z,21.60
2017-05-25T09:01:24.883Z,21.90
2017-05-25T09:03:53.198Z,22.40
2017-05-25T09:06:21.519Z,22.50
2017-05-25T09:08:49.055Z,22.50
2017-05-25T09:11:17.360Z,22.50
2017-05-25T09:13:45.684Z,22.10
2017-05-25T09:16:13.996Z,22.30
2017-05-25T09:18:42.306Z,22.10
2017-05-25T09:21:10.627Z,21.90
2017-05-25T09:23:38.940Z,21.70
2017-05-25T09:26:07.271Z,22.00
2017-05-25T09:28:35.601Z,22.40
2017-05-25T09:31:03.939Z,23.00
2017-05-25T09:33:32.251Z,23.10
2017-05-25T09:36:00.578Z,23.20
2017-05-25T09:38:28.885Z,22.80
2017-05-25T09:40:57.192Z,22.50
2017-05-25T09:43:25.514Z,22.40
2017-05-25T09:45:53.833Z,22.50
2017-05-25T09:48:22.154Z,22.40
2017-05-25T09:50:51.041Z,22.40
2017-05-25T09:53:19.369Z,22.40
2017-05-25T09:55:46.914Z,22.40
2017-05-25T09:58:15.279Z,22.20
2017-05-25T10:00:43.598Z,22.20
2017-05-25T10:03:11.911Z,22.60
2017-05-25T10:05:40.227Z,22.80
2017-05-25T10:08:08.536Z,22.90
2017-05-25T10:10:36.848Z,23.20
2017-05-25T10:13:05.168Z,23.10
2017-05-25T10:15:33.482Z,23.00
2017-05-25T10:18:01.794Z,22.70
2017-05-25T10:20:30.111Z,22.90
2017-05-25T10:22:58.423Z,22.90
2017-05-25T10:25:26.737Z,23.00
2017-05-25T10:27:55.052Z,23.20
2017-05-25T10:30:23.360Z,23.00
2017-05-25T10:32:51.668Z,23.10
2017-05-25T10:35:19.991Z,22.80
2017-05-25T10:37:48.291Z,22.50
2017-05-25T10:40:16.600Z,22.20
2017-05-25T10:42:44.933Z,22.10
2017-05-25T10:45:13.248Z,21.80
2017-05-25T10:47:41.592Z,21.70
2017-05-25T10:50:09.908Z,21.60
2017-05-25T10:52:38.216Z,21.40
2017-05-25T10:55:06.532Z,21.40
2017-05-25T10:57:34.864Z,21.50
2017-05-25T11:00:03.176Z,21.60
2017-05-25T11:02:31.484Z,21.90
2017-05-25T11:04:59.805Z,21.90
2017-05-25T11:07:28.119Z,21.60
2017-05-25T11:09:56.431Z,21.70
2017-05-25T11:12:24.757Z,21.70
2017-05-25T11:14:53.069Z,21.70
2017-05-25T11:17:21.380Z,21.70
2017-05-25T11:19:49.714Z,21.70
2017-05-25T11:22:18.028Z,22.10
2017-05-25T11:24:46.346Z,21.80
2017-05-25T11:27:14.663Z,21.90
2017-05-25T11:29:42.968Z,22.00
2017-05-25T11:32:11.283Z,22.10
2017-05-25T11:34:39.604Z,22.30
2017-05-25T11:37:07.908Z,22.30
2017-05-25T11:39:36.215Z,22.60
2017-05-25T11:42:04.536Z,22.60
2017-05-25T11:44:32.840Z,22.80
2017-05-25T11:47:01.152Z,23.10
2017-05-25T11:49:29.489Z,23.40
2017-05-25T11:51:57.795Z,23.60
2017-05-25T11:54:26.101Z,23.90
2017-05-25T11:56:54.424Z,24.40
2017-05-25T11:59:22.738Z,24.00
2017-05-25T12:01:51.062Z,23.30
2017-05-25T12:04:19.380Z,22.50
2017-05-25T12:06:47.684Z,22.00
2017-05-25T12:09:15.995Z,21.90
2017-05-25T12:11:44.320Z,21.50
2017-05-25T12:14:12.630Z,21.00
2017-05-25T12:16:40.936Z,20.90
2017-05-25T12:19:09.258Z,20.50
2017-05-25T12:21:37.559Z,20.70
2017-05-25T12:24:05.870Z,20.60
2017-05-25T12:26:34.231Z,20.40
2017-05-25T12:29:02.539Z,20.50
2017-05-25T12:31:30.853Z,20.80
2017-05-25T12:33:59.172Z,20.90
2017-05-25T12:36:27.487Z,20.50
2017-05-25T12:38:55.864Z,20.70
2017-05-25T12:41:24.188Z,20.80
2017-05-25T12:43:52.491Z,21.10
2017-05-25T12:46:21.159Z,21.30
2017-05-25T12:48:49.576Z,21.50
2017-05-25T12:51:17.887Z,21.30
2017-05-25T12:53:46.607Z,21.40
2017-05-25T12:56:15.408Z,21.70
2017-05-25T12:58:43.888Z,21.60
2017-05-25T13:01:12.200Z,21.80
2017-05-25T13:03:40.523Z,22.00
2017-05-25T13:06:08.823Z,22.30
2017-05-25T13:08:37.129Z,22.30
2017-05-25T13:11:06.105Z,22.80
2017-05-25T13:13:34.416Z,23.00
2017-05-25T13:16:02.728Z,23.50
2017-05-25T13:18:31.045Z,24.00
2017-05-25T13:20:59.352Z,24.50
2017-05-25T13:23:27.810Z,25.00
2017-05-25T13:25:56.257Z,24.80
2017-05-25T13:28:24.564Z,24.80
2017-05-25T13:30:52.879Z,25.00
2017-05-25T13:33:21.199Z,25.10
2017-05-25T13:35:49.514Z,25.10
2017-05-25T13:38:17.980Z,25.00
2017-05-25T13:40:46.299Z,25.00
2017-05-25T13:43:14.614Z,24.90
2017-05-25T13:45:42.927Z,24.80
2017-05-25T13:48:11.244Z,24.40
2017-05-25T13:50:39.544Z,24.30
2017-05-25T13:53:07.863Z,24.10
2017-05-25T13:55:36.180Z,24.00
2017-05-25T13:58:04.496Z,24.00
2017-05-25T14:00:32.811Z,24.00
2017-05-25T14:03:01.140Z,23.90
2017-05-25T14:05:29.442Z,23.70
2017-05-25T14:07:57.754Z,23.30
2017-05-25T14:10:26.072Z,22.80
2017-05-25T14:12:54.380Z,22.70
2017-05-25T14:15:22.702Z,22.80
2017-05-25T14:17:51.020Z,22.70
2017-05-25T14:20:19.336Z,22.60
2017-05-25T14:22:47.648Z,22.70
2017-05-25T14:25:15.964Z,22.40
2017-05-25T14:27:44.325Z,22.70
2017-05-25T14:30:12.641Z,23.00
2017-05-25T14:32:40.964Z,22.80
2017-05-25T14:35:09.310Z,23.00
2017-05-25T14:37:37.608Z,22.80
2017-05-25T14:40:06.551Z,23.00
2017-05-25T14:42:34.864Z,23.10
2017-05-25T14:45:03.495Z,23.10
2017-05-25T14:47:32.424Z,23.00
2017-05-25T14:50:00.728Z,22.70
2017-05-25T14:52:29.041Z,22.50
2017-05-25T14:54:57.436Z,22.50
2017-05-25T14:57:25.743Z,22.70
2017-05-25T14:59:54.056Z,22.70
2017-05-25T15:02:22.380Z,22.30
2017-05-25T15:04:50.727Z,22.20
2017-05-25T15:07:19.049Z,22.20
2017-05-25T15:09:47.377Z,22.10
2017-05-25T15:12:15.688Z,22.40
2017-05-25T15:14:43.998Z,22.40
2017-05-25T15:17:12.325Z,22.20
2017-05-25T15:19:40.636Z,22.00
2017-05-25T15:22:08.966Z,22.20
2017-05-25T15:24:37.280Z,22.00
2017-05-25T15:27:05.602Z,22.40
2017-05-25T15:29:33.986Z,22.80
2017-05-25T15:32:02.334Z,22.80
2017-05-25T15:34:31.035Z,22.80
2017-05-25T15:36:59.351Z,23.20
2017-05-25T15:39:27.668Z,23.10
2017-05-25T15:41:55.976Z,23.30
2017-05-25T15:44:24.284Z,23.30
2017-05-25T15:46:52.612Z,23.20
2017-05-25T15:49:20.920Z,23.40
2017-05-25T15:51:49.223Z,22.90
2017-05-25T15:54:17.559Z,22.80
2017-05-25T15:56:45.970Z,23.20
2017-05-25T15:59:14.302Z,23.50
2017-05-25T16:01:42.861Z,23.60
2017-05-25T16:04:11.320Z,23.60
2017-05-25T16:06:39.788Z,23.70
2017-05-25T16:09:08.923Z,23.80
2017-05-25T16:11:37.231Z,23.50
2017-05-25T16:14:05.548Z,23.00
2017-05-25T16:16:33.874Z,23.20
2017-05-25T16:19:02.871Z,23.40
2017-05-25T16:21:31.239Z,23.60
2017-05-25T16:23:59.595Z,22.90
2017-05-25T16:26:27.909Z,23.10
2017-05-25T16:28:56.332Z,23.00
2017-05-25T16:31:24.652Z,23.30
2017-05-25T16:33:52.963Z,23.50
2017-05-25T16:36:21.280Z,23.50
2017-05-25T16:38:49.744Z,23.10
2017-05-25T16:41:20.573Z,22.80
2017-05-25T16:43:49.087Z,22.60
2017-05-25T16:46:17.407Z,22.50
2017-05-25T16:48:45.711Z,22.80
2017-05-25T16:51:14.031Z,22.90
2017-05-25T16:53:42.336Z,22.60
2017-05-25T16:56:10.659Z,22.50
2017-05-25T16:58:44.142Z,22.10
2017-05-25T17:01:12.462Z,21.70
2017-05-25T17:03:40.771Z,22.00
2017-05-25T17:06:09.123Z,21.60
2017-05-25T17:08:37.437Z,21.60
2017-05-25T17:11:05.768Z,21.30
2017-05-25T17:13:34.081Z,21.40
2017-05-25T17:16:02.495Z,21.30
2017-05-25T17:18:30.813Z,21.20
2017-05-25T17:20:59.132Z,21.30
2017-05-25T17:23:27.443Z,21.30
2017-05-25T17:25:55.768Z,21.40
2017-05-25T17:28:24.084Z,21.60
2017-05-25T17:30:52.401Z,21.60
2017-05-25T17:33:20.729Z,21.70
2017-05-25T17:35:49.064Z,21.90
2017-05-25T17:38:17.388Z,21.60
2017-05-25T17:40:45.715Z,21.50
2017-05-25T17:43:14.032Z,21.50
2017-05-25T17:45:42.352Z,21.40
2017-05-25T17:48:10.673Z,21.40
2017-05-25T17:50:38.980Z,21.70
2017-05-25T17:53:07.295Z,21.70
2017-05-25T17:55:35.621Z,21.70
2017-05-25T17:58:03.924Z,21.70
2017-05-25T18:00:32.261Z,21.40
2017-05-25T18:03:00.611Z,21.40
2017-05-25T18:05:28.915Z,21.20
2017-05-25T18:07:57.220Z,21.30
2017-05-25T18:10:25.535Z,21.00
2017-05-25T18:12:53.851Z,20.80
2017-05-25T18:15:22.155Z,20.80
2017-05-25T18:17:50.468Z,20.90
2017-05-25T18:20:18.781Z,21.00
2017-05-25T18:22:47.092Z,21.10
2017-05-25T18:25:15.417Z,20.80
2017-05-25T18:27:43.723Z,20.80
2017-05-25T18:30:12.027Z,20.80
2017-05-25T18:32:40.352Z,20.70
2017-05-25T18:35:08.655Z,20.70
2017-05-25T18:37:36.988Z,20.50
2017-05-25T18:40:05.313Z,20.20
2017-05-25T18:42:33.631Z,20.00
2017-05-25T18:45:01.940Z,20.40
2017-05-25T18:47:30.272Z,20.60
2017-05-25T18:49:58.588Z,20.80
2017-05-25T18:52:26.997Z,20.90
2017-05-25T18:54:55.552Z,21.00
2017-05-25T18:57:23.869Z,21.10
2017-05-25T18:59:52.176Z,21.20
2017-05-25T19:02:20.492Z,21.20
2017-05-25T19:04:48.803Z,21.20
2017-05-25T19:07:17.108Z,21.20
2017-05-25T19:09:45.436Z,21.20
2017-05-25T19:12:13.770Z,21.10
2017-05-25T19:14:42.087Z,21.10
2017-05-25T19:17:10.407Z,21.10
2017-05-25T19:19:38.716Z,21.20
2017-05-25T19:22:07.029Z,21.10
2017-05-25T19:24:35.372Z,20.90
2017-05-25T19:27:03.688Z,21.00
2017-05-25T19:29:32.004Z,21.00
2017-05-25T19:32:00.319Z,20.90
2017-05-25T19:34:28.639Z,20.80
2017-05-25T19:36:56.946Z,20.80
2017-05-25T19:39:25.265Z,20.70
2017-05-25T19:41:53.571Z,20.80
2017-05-25T19:44:21.891Z,20.80
2017-05-25T19:46:50.215Z,20.70
2017-05-25T19:49:18.525Z,20.70
2017-05-25T19:51:46.831Z,20.70
2017-05-25T19:54:15.152Z,20.70
2017-05-25T19:56:43.467Z,20.70
2017-05-25T19:59:11.779Z,20.70
2017-05-25T20:01:40.100Z,20.70
2017-05-25T20:04:08.415Z,20.60
2017-05-25T20:06:36.743Z,20.60
2017-05-25T20:09:05.072Z,20.60
2017-05-25T20:11:33.405Z,20.60
2017-05-25T20:14:01.720Z,20.60
2017-05-25T20:16:30.040Z,20.50
2017-05-25T20:18:58.349Z,20.50
2017-05-25T20:21:26.661Z,20.50
2017-05-25T20:23:54.979Z,20.40
2017-05-25T20:26:23.285Z,20.40
2017-05-25T20:28:51.600Z,20.30
2017-05-25T20:31:19.925Z,20.20
2017-05-25T20:33:48.238Z,20.30
2017-05-25T20:36:16.556Z,20.20
2017-05-25T20:38:44.885Z,20.20
2017-05-25T20:41:13.207Z,20.00
2017-05-25T20:43:41.513Z,20.00
2017-05-25T20:46:09.838Z,20.00
2017-05-25T20:48:38.143Z,19.90
2017-05-25T20:51:06.478Z,19.90
2017-05-25T20:53:34.825Z,19.90
2017-05-25T20:56:03.144Z,19.90
2017-05-25T20:58:31.455Z,19.80
2017-05-25T21:00:59.772Z,19.80
2017-05-25T21:03:28.089Z,19.80
2017-05-25T21:05:56.451Z,19.80
2017-05-25T21:08:24.778Z,19.70
2017-05-25T21:10:53.087Z,19.70
2017-05-25T21:13:21.396Z,19.70
2017-05-25T21:15:49.715Z,19.60
2017-05-25T21:18:18.027Z,19.60
2017-05-25T21:20:46.343Z,19.60
2017-05-25T21:23:14.669Z,19.60
2017-05-25T21:25:42.985Z,19.60
2017-05-25T21:28:11.295Z,19.50
2017-05-25T21:30:39.608Z,19.40
2017-05-25T21:33:07.923Z,19.30
2017-05-25T21:35:36.241Z,19.20
2017-05-25T21:38:04.563Z,19.20
2017-05-25T21:40:32.886Z,19.20
2017-05-25T21:43:01.204Z,19.10
2017-05-25T21:45:29.532Z,19.10
2017-05-25T21:47:57.840Z,19.00
2017-05-25T21:50:26.161Z,19.00
2017-05-25T21:52:54.475Z,18.90
2017-05-25T21:55:22.800Z,18.90
2017-05-25T21:57:51.119Z,18.80
2017-05-25T22:00:19.435Z,18.80
2017-05-25T22:02:47.746Z,18.70
2017-05-25T22:05:16.054Z,18.70
2017-05-25T22:07:44.455Z,18.60
2017-05-25T22:10:12.766Z,18.50
2017-05-25T22:12:41.092Z,18.50
2017-05-25T22:15:09.420Z,18.50
2017-05-25T22:17:37.736Z,18.50
2017-05-25T22:20:06.047Z,18.60
2017-05-25T22:22:34.372Z,18.50
2017-05-25T22:25:02.687Z,18.60
2017-05-25T22:27:31.003Z,18.40
2017-05-25T22:29:59.324Z,18.40
2017-05-25T22:32:27.639Z,18.50
2017-05-25T22:34:55.952Z,18.50
2017-05-25T22:37:24.267Z,18.50
2017-05-25T22:39:52.588Z,18.50
2017-05-25T22:42:20.921Z,18.60
2017-05-25T22:44:49.239Z,18.40
2017-05-25T22:47:17.554Z,18.20
2017-05-25T22:49:45.868Z,18.40
2017-05-25T22:52:14.201Z,18.40
2017-05-25T22:54:42.521Z,18.40
2017-05-25T22:57:10.827Z,18.30
2017-05-25T22:59:39.143Z,18.40
2017-05-25T23:02:07.461Z,18.40
2017-05-25T23:04:35.775Z,18.40
2017-05-25T23:07:04.197Z,18.40
2017-05-25T23:09:32.510Z,18.40
2017-05-25T23:12:00.819Z,18.20
2017-05-25T23:14:29.144Z,18.00
2017-05-25T23:16:57.448Z,18.00
2017-05-25T23:19:25.764Z,17.50
2017-05-25T23:21:54.148Z,17.30
2017-05-25T23:24:22.460Z,17.30
2017-05-25T23:26:50.779Z,17.50
2017-05-25T23:29:19.099Z,17.60
2017-05-25T23:31:47.420Z,17.70
2017-05-25T23:34:15.727Z,17.80
2017-05-25T23:36:44.045Z,18.00
2017-05-25T23:39:12.369Z,17.70
2017-05-25T23:41:40.705Z,17.50
2017-05-25T23:44:09.023Z,17.40
2017-05-25T23:46:37.348Z,17.40
2017-05-25T23:49:05.665Z,17.50
2017-05-25T23:51:33.997Z,17.50
2017-05-25T23:54:02.324Z,17.50
2017-05-25T23:56:30.649Z,17.50
2017-05-25T23:58:58.992Z,17.70
